D/T METAR WX W/DIR W/SPE G/SPE TEMP DEWP
7/12/19 23:50 EGXU 072350Z AUTO 20013KT 5000 // SCT019/// BKN050/// 09/08 Q0993 SSW (200°) 15.0mph 9°C 8°C
7/12/19 22:50 EGXU 072250Z AUTO 19015KT 9999 // SCT022/// BKN080/// 10/07 Q0995 S (190°) 17.3mph 10°C 7°C
7/12/19 21:50 EGXU 072150Z AUTO 20016KT 9999 // FEW022/// BKN150/// BKN220/// 10/07 Q0997 SSW (200°) 18.4mph 10°C 7°C
7/12/19 20:50 EGXU 072050Z AUTO 20010KT 9999 // FEW017/// BKN020/// 10/07 Q0999 SSW (200°) 11.5mph 10°C 7°C
7/12/19 19:50 EGXU 071950Z AUTO 20015KT 9999 // BKN016/// 10/07 Q1001 SSW (200°) 17.3mph 10°C 7°C
7/12/19 18:50 EGXU 071850Z AUTO 16008KT 9999 // BKN018/// BKN080/// 10/07 Q1002 SSE (160°) 9.2mph 10°C 7°C
7/12/19 17:50 EGXU 071750Z AUTO 16007KT 9999 // FEW021/// BKN080/// 09/07 Q1004 SSE (160°) 8.1mph 9°C 7°C
7/12/19 16:50 EGXU 071650Z AUTO 17010KT 9999 // SCT020/// SCT080/// 09/06 Q1005 S (170°) 11.5mph 9°C 6°C
7/12/19 15:50 EGXU 071550Z AUTO 16006KT 9999 // BKN021/// 10/06 Q1006 SSE (160°) 6.9mph 10°C 6°C
7/12/19 15:20 EGXU 071520Z 16004KT 9999 SCT023 BKN060 09/06 Q1006 RMK WHT SSE (160°) 4.6mph 9°C 6°C
7/12/19 14:20 EGXU 071420Z 21007KT 9999 SCT024 10/06 Q1007 RMK WHT SSW (210°) 8.1mph 10°C 6°C
7/12/19 13:20 EGXU 071320Z 25009KT 9999 SCT020 BKN060 09/06 Q1007 RMK BLU WSW (250°) 10.4mph 9°C 6°C
7/12/19 12:50 EGXU 071250Z 24014KT 9999 SCT018 BKN031 10/07 Q1008 RMK WHT WSW (240°) 16.1mph 10°C 7°C
7/12/19 12:20 EGXU 071220Z 24010KT 9999 SCT018 BKN024 09/07 Q1008 RMK WHT WSW (240°) 11.5mph 9°C 7°C
7/12/19 11:50 EGXU 071150Z 24008KT 9999 SCT020 BKN029 BKN070 10/07 Q1008 RMK WHT WSW (240°) 9.2mph 10°C 7°C
7/12/19 11:20 EGXU 071120Z 24013KT 9999 FEW020 BKN028 BKN070 09/07 Q1008 RMK BLU WSW (240°) 15.0mph 9°C 7°C
7/12/19 10:50 EGXU 071050Z 25007KT 9999 BKN034 09/06 Q1009 RMK BLU WSW (250°) 8.1mph 9°C 6°C
7/12/19 10:20 EGXU 071020Z 23009KT 9999 FEW012 BKN032 09/06 Q1009 RMK BLU SW (230°) 10.4mph 9°C 6°C
7/12/19 09:50 EGXU 070950Z 24007KT 9999 FEW019 BKN032 09/06 Q1009 RMK BLU WSW (240°) 8.1mph 9°C 6°C
7/12/19 09:20 EGXU 070920Z 23009KT 9999 FEW012 BKN032 09/06 Q1009 RMK BLU SW (230°) 10.4mph 9°C 6°C
7/12/19 08:20 EGXU 070820Z 22005KT 9999 FEW021 BKN027 09/06 Q1008 RMK BLU SW (220°) 5.8mph 9°C 6°C
7/12/19 06:50 EGXU 070650Z AUTO 26009KT 9999 // BKN029/// 09/06 Q1008 W (260°) 10.4mph 9°C 6°C
7/12/19 05:50 EGXU 070550Z AUTO 26009KT 9999 // FEW020/// 09/06 Q1007 W (260°) 10.4mph 9°C 6°C
7/12/19 04:50 EGXU 070450Z AUTO 26008KT 9999 // FEW020/// BKN041/// 09/06 Q1007 W (260°) 9.2mph 9°C 6°C
7/12/19 03:50 EGXU 070350Z AUTO 25010KT 9999 // BKN041/// 09/06 Q1006 WSW (250°) 11.5mph 9°C 6°C
7/12/19 02:50 EGXU 070250Z AUTO 26014KT 9999 // BKN045/// 08/06 Q1006 W (260°) 16.1mph 8°C 6°C
7/12/19 01:50 EGXU 070150Z AUTO 26009KT 9999 // BKN040/// 08/06 Q1005 W (260°) 10.4mph 8°C 6°C
7/12/19 00:50 EGXU 070050Z AUTO 25006KT 9999 // SCT039/// 08/06 Q1004 WSW (250°) 6.9mph 8°C 6°C
6/12/19 23:50 EGXU 062350Z AUTO 25008KT 9999 // NCD 08/06 Q1004 WSW (250°) 9.2mph 8°C 6°C
6/12/19 22:50 EGXU 062250Z AUTO 26007KT 9999 // NCD 08/06 Q1003 W (260°) 8.1mph 8°C 6°C
6/12/19 21:50 EGXU 062150Z AUTO 26010KT 9999 // NCD 08/06 Q1002 W (260°) 11.5mph 8°C 6°C
6/12/19 20:50 EGXU 062050Z AUTO 28008KT 9999 // NCD 09/06 Q1002 W (280°) 9.2mph 9°C 6°C
6/12/19 19:50 EGXU 061950Z AUTO 26008KT 9999 // NCD 09/06 Q1001 W (260°) 9.2mph 9°C 6°C
6/12/19 18:50 EGXU 061850Z AUTO 29009KT 9999 // NCD 09/06 Q0999 WNW (290°) 10.4mph 9°C 6°C
6/12/19 17:50 EGXU 061750Z AUTO 28006KT 9999 // NCD 09/06 Q0998 W (280°) 6.9mph 9°C 6°C
6/12/19 16:50 EGXU 061650Z AUTO 27008KT 9999 // FEW026/// 09/06 Q0997 W (270°) 9.2mph 9°C 6°C
6/12/19 15:50 EGXU 061550Z AUTO 27008KT 9999 // BKN022/// 10/07 Q0996 W (270°) 9.2mph 10°C 7°C
6/12/19 14:50 EGXU 061450Z 27010KT 9999 BKN028 10/08 Q0995 RMK BLU W (270°) 11.5mph 10°C 8°C
6/12/19 14:20 EGXU 061420Z 26012KT 9999 SHRA BKN020 09/08 Q0995 RMK WHT SHRA W (260°) 13.8mph 9°C 8°C
6/12/19 14:00 EGXU 061400Z 26011KT 4000 SHRA BKN2000 10/08 Q0995 RMK GRN SHRA W (260°) 12.7mph 10°C 8°C
6/12/19 13:20 EGXU 061320Z 27010KT 9999 BKN020 11/08 Q0995 RMK WHT W (270°) 11.5mph 11°C 8°C
6/12/19 12:50 EGXU 061250Z 26012KT 9999 SCT021 BKN028 11/08 Q0995 RMK WHT W (260°) 13.8mph 11°C 8°C
6/12/19 12:20 EGXU 061220Z 25013KT 9999 SCT025 BKN030 11/08 Q0995 RMK BLU WSW (250°) 15.0mph 11°C 8°C
6/12/19 11:50 EGXU 061150Z 25014KT 9999 FEW021 BKN050 11/09 Q0995 RMK BLU WSW (250°) 16.1mph 11°C 9°C
6/12/19 11:20 EGXU 061120Z 25014KT 9999 BKN024 11/09 Q0996 RMK WHT WSW (250°) 16.1mph 11°C 9°C
6/12/19 10:44 EGXU 061044Z 25012KT 2200 RA FEW015 BKN020 11/10 Q0996 RMK YLO2 RA WSW (250°) 13.8mph 11°C 10°C
6/12/19 09:50 EGXU 060950Z 22011KT 9999 OVC015 12/10 Q0996 RMK WHT SW (220°) 12.7mph 12°C 10°C
6/12/19 09:20 EGXU 060920Z 22011KT 9999 OVC015 12/10 Q0996 RMK WHT SW (220°) 12.7mph 12°C 10°C